Chiang Rai, Thailand

8:48 AM ICT on October 23, 2014 (GMT +0700)
Chiang Rai International | Change Station
CLOSE
Current Station
Airport
Location: Chiang Rai International,
Elevation: 1280 ft
Nearby Weather Stations

Elev 1280 ft 19.95 °N, 99.88 °E | Updated 48 minutes ago

Overcast
Overcast
72 °F
Feels Like 72 °F
N
1
Wind Variable Wind from Variable

Today
High -- | Low -- °F
--% Chance of Precip.
Yesterday
High -- | Low -- °F
Precip. -- in
6:17 AM 5:51 PM
Waning Crescent, 1% visible
Pressure 30.04 in
Visibility 5.0 miles
Clouds Scattered Clouds 1200 ft
Mostly Cloudy 2100 ft
Overcast 10000 ft
Dew Point 70 °F
Humidity 94%
Rainfall 0.00 in
Snow Depth Not available.
UV 1 out of 12
Pollen Not available.
Air Quality Not available.
Flu Activity Not available.
METAR VTCT 230100Z VRB01KT 8000 SCT012 BKN021 OVC100 22/21 Q1017 A3003 RMK/RWY03 INFO B

More Conditions Fewer Conditions

Pressure 30.04 in
Visibility 5.0 miles
Clouds Scattered Clouds 1200 ft
Mostly Cloudy 2100 ft
Overcast 10000 ft
Dew Point 70 °F
Humidity 94%
Rainfall 0.00 in
Snow Depth Not available.
UV 1 out of 12
Pollen Not available.
Air Quality Not available.
Flu Activity Not available.
METAR VTCT 230100Z VRB01KT 8000 SCT012 BKN021 OVC100 22/21 Q1017 A3003 RMK/RWY03 INFO B

More Conditions Fewer Conditions

10-Day Weather Forecast

Almanac

Astronomy

Oct. 23, 2014 Rise Set
Actual Time 6:17 AM ICT 5:51 PM ICT
Civil Twilight 5:55 AM ICT 6:13 PM ICT
Nautical Twilight 5:29 AM ICT 6:39 PM ICT
Astronomical Twilight 5:03 AM ICT 7:05 PM ICT
Moon 5:33 AM ICT 5:30 PM ICT
Length of Visible Light 12h 18m
Length of Day
11h 33m
Tomorrow will be 1m 2s shorter.
Waning Crescent, 1% of the Moon is Illuminated
Oct 22
Waning Crescent
Oct 23
New
Oct 30
First Quarter
Nov 6
Full
Nov 14
Last Quarter

Yesterday's Extremes

Country Highs Country Lows

Community

WunderPhotos

Upload Photos

1,764,108 photos uploaded!

Nearby

Snow Depth

Not available.

Earthquake Activity

City Distance Mag. Time & Date
No recent earthquake activity has been reported nearby.
Minimum magnitude displayed is 2.5.

Coastal Water Temperatures

Place Temperature
No Stations Reporting

Nearby Weather Stations